Strona główna
METAR-TAF:

METAR-TAF

Lotnisko :

Port lotniczy Foz do Iguaçu

Foz do Iguaçu, Parana, Brazylia

Szerokość geograficzna: 25-31S, Długość geograficzna: 054-35W, wysokość: 180 m

Aktualna obserwacja pogody

Raport powstał 52 minut temu, godzina 15:00 UTC
Wiatr 5 kt od wschodnio-północny wschód
Temperatura 23°C
Wilgotność 61%
Ciśnienie 1023 hPa
Widzialność 10 km lub więcej
Brak chmur poniżej 1500 m i brak chmur cumulonimbus

METAR: SBFI 161500Z 07005KT CAVOK 23/15 Q1023

czas: 12:52 (15:52 UTC)

Prognoza

Raport powstał 6 godziny i 52 minut temu, godzina 09:00 UTC
Prognoza ważna od 16 godzina 12 UTC do 17 godzina 12 UTC
Wiatr kt od północ
Widzialność 10 km lub więcej
Brak chmur poniżej 1500 m i brak chmur cumulonimbus
Prawdopodobieństwo 40%
od 16 godzina 12 UTC do 16 godzina 14 UTC
Widzialność: 3000 m
zamglenie
Stopniowe zmiany
od 16 godzina 14 UTC do 16 godzina 16 UTC
Wiatr 6 kt od wschód

TAF: SBFI 160900Z 1612/1712 00000KT CAVOK TX26/1618Z TN13/1709Z PROB40 1612/1614 3000 BR NSC BECMG 1614/1616 10006KT RMK PDJ

Obserwacja i prognoza pogody dla ponad 4000 lotnisk (raport METAR i TAF).

Dostępne stacje oznaczono żółtymi i czerwonymi punktami na mapie.

Najedź kursorem aby zobaczyć nazwę stacji.

Kliknij aby zobaczyć obserwacje i prognozy pogody.

Aby zmienić mapę: kliknij na zielony przycisk z czarnym krzyżykiem, aby powiększyć; na zielony przycisk z myślnikiem, aby pomniejszyć; na zielone strzałki, aby przejść do map sąsiednich.


METAR-TAF: